Time;durP1;ratioP1;P1;durP2;ratioP2;P2;SDS_P1;SDS_P2;PMS_P1;PMS_P2;Temp;Humidity;BMP_temperature;BMP_pressure;BME280_temperature;BME280_humidity;BME280_pressure;Samples;Min_cycle;Max_cycle;Signal;HPM_P1;HPM_P2
2023/02/24 08:20:28;;;;;;;5.43;1.83;;;7.20;99.90;;;;;;3079295;23;20237;-74
2023/02/24 08:22:56;;;;;;;5.83;0.97;;;7.20;99.90;;;;;;4917842;29;20248;-75
2023/02/24 08:25:34;;;;;;;4.00;1.03;;;7.10;99.90;;;;;;4918444;29;20210;-74
2023/02/24 08:28:04;;;;;;;4.50;1.23;;;7.10;99.90;;;;;;4918077;29;20239;-75
2023/02/24 08:30:37;;;;;;;5.80;1.30;;;7.20;99.90;;;;;;4917968;29;20220;-75
2023/02/24 08:33:05;;;;;;;7.00;1.13;;;7.10;99.90;;;;;;4917758;29;20241;-75
2023/02/24 08:35:35;;;;;;;10.57;1.53;;;7.30;99.90;;;;;;4917754;29;20570;-74
2023/02/24 08:38:13;;;;;;;6.73;1.20;;;7.40;99.90;;;;;;4917683;29;20289;-74
2023/02/24 08:40:53;;;;;;;5.50;1.40;;;7.40;99.90;;;;;;4917447;29;20216;-74
2023/02/24 08:43:31;;;;;;;5.93;1.50;;;7.50;99.90;;;;;;4917873;29;20240;-74
2023/02/24 08:46:02;;;;;;;5.63;0.90;;;7.20;99.90;;;;;;4917609;29;20213;-74
2023/02/24 08:48:36;;;;;;;4.80;0.97;;;7.10;99.90;;;;;;4917707;29;20234;-74
2023/02/24 08:51:09;;;;;;;2.90;0.70;;;7.20;99.90;;;;;;4917624;29;20213;-75
2023/02/24 08:53:39;;;;;;;4.20;0.80;;;7.50;99.90;;;;;;4914335;29;20227;-75
2023/02/24 08:56:10;;;;;;;4.50;0.67;;;7.60;99.90;;;;;;4915284;29;20210;-75
2023/02/24 08:58:39;;;;;;;3.17;0.80;;;7.80;99.90;;;;;;4917395;29;20597;-74
2023/02/24 09:01:17;;;;;;;6.73;0.70;;;7.80;99.90;;;;;;4917382;29;20204;-75
2023/02/24 09:03:45;;;;;;;6.50;0.90;;;7.90;99.90;;;;;;4917283;29;20213;-74
2023/02/24 09:06:17;;;;;;;2.20;0.60;;;8.20;99.90;;;;;;4917042;29;20661;-73
2023/02/24 09:09:16;;;;;;;4.97;0.60;;;8.20;99.90;;;;;;4916724;29;20206;-74
2023/02/24 09:11:42;;;;;;;4.63;0.77;;;8.20;99.90;;;;;;4916915;29;20210;-73
2023/02/24 09:14:15;;;;;;;3.67;0.70;;;8.30;99.90;;;;;;4916951;29;20229;-76
2023/02/24 09:17:00;;;;;;;4.47;1.00;;;8.30;99.90;;;;;;4917171;29;20890;-75
2023/02/24 09:20:22;;;;;;;7.17;1.03;;;8.30;99.90;;;;;;4916957;29;20600;-72
2023/02/24 09:22:30;;;;;;;3.90;0.70;;;8.30;99.90;;;;;;4916458;29;20243;-73
2023/02/24 09:25:17;;;;;;;3.90;0.73;;;7.90;99.90;;;;;;4916513;29;20233;-73
2023/02/24 09:27:46;;;;;;;6.80;0.97;;;7.80;99.90;;;;;;4916845;29;20229;-76
2023/02/24 09:30:34;;;;;;;6.43;0.83;;;7.80;99.90;;;;;;4916966;29;20245;-72
2023/02/24 09:33:05;;;;;;;4.33;0.70;;;8.10;99.90;;;;;;4916725;29;20273;-73
2023/02/24 09:35:35;;;;;;;2.53;0.63;;;7.80;99.90;;;;;;4897961;29;20210;-74
2023/02/24 09:38:05;;;;;;;4.17;0.67;;;8.00;99.90;;;;;;4897857;29;20230;-73
2023/02/24 09:40:39;;;;;;;6.60;0.63;;;8.30;99.90;;;;;;4898190;29;20348;-74
2023/02/24 09:43:16;;;;;;;10.47;1.10;;;8.70;99.90;;;;;;4897559;29;20213;-73
2023/02/24 09:45:52;;;;;;;1.43;0.57;;;9.10;99.90;;;;;;4897889;29;20383;-74
2023/02/24 09:48:23;;;;;;;4.93;1.03;;;9.40;99.90;;;;;;4897811;29;20230;-74
2023/02/24 09:51:02;;;;;;;4.60;0.80;;;9.50;99.90;;;;;;4897831;29;20211;-74
2023/02/24 09:53:38;;;;;;;5.97;1.00;;;9.30;99.90;;;;;;4897365;29;20209;-73
2023/02/24 09:56:14;;;;;;;4.33;0.80;;;8.80;99.90;;;;;;4897939;29;20214;-74
2023/02/24 09:58:47;;;;;;;4.17;0.70;;;8.80;99.90;;;;;;4897874;29;20328;-74
2023/02/24 10:01:45;;;;;;;6.53;0.97;;;8.70;99.90;;;;;;4897893;29;20673;-74
2023/02/24 10:04:34;;;;;;;4.43;0.97;;;8.60;99.90;;;;;;4897035;29;20214;-74
2023/02/24 10:07:06;;;;;;;5.07;0.83;;;8.80;99.90;;;;;;4897729;29;20321;-74
2023/02/24 10:09:39;;;;;;;6.33;1.10;;;9.20;99.90;;;;;;4897915;29;20309;-74
2023/02/24 10:12:18;;;;;;;6.23;0.90;;;9.30;99.90;;;;;;4898009;29;20215;-74
2023/02/24 10:14:51;;;;;;;4.77;1.10;;;9.10;99.90;;;;;;4897950;29;20225;-74
2023/02/24 10:17:23;;;;;;;4.50;1.00;;;9.10;99.90;;;;;;4897758;29;20241;-74
2023/02/24 10:19:58;;;;;;;2.37;1.03;;;8.90;99.90;;;;;;4897477;29;20233;-74
2023/02/24 10:22:38;;;;;;;6.27;0.90;;;9.00;99.90;;;;;;4897300;29;20240;-74
2023/02/24 10:25:34;;;;;;;3.27;1.00;;;8.70;99.90;;;;;;4897403;29;20665;-74
2023/02/24 10:28:13;;;;;;;6.97;0.90;;;8.60;99.90;;;;;;4897522;29;20230;-74
2023/02/24 10:30:48;;;;;;;5.23;1.13;;;8.60;99.90;;;;;;4897513;29;20246;-74
2023/02/24 10:33:24;;;;;;;12.20;1.10;;;8.50;99.90;;;;;;4897331;29;20665;-74
2023/02/24 10:35:53;;;;;;;4.53;1.53;;;8.50;99.90;;;;;;4897413;29;20206;-74
2023/02/24 10:38:21;;;;;;;1.43;0.70;;;8.50;99.90;;;;;;4897230;29;20587;-74
2023/02/24 10:40:56;;;;;;;5.00;1.40;;;8.40;99.90;;;;;;4897779;29;20213;-74
2023/02/24 10:43:44;;;;;;;4.33;1.10;;;8.20;99.90;;;;;;4897555;29;20214;-74
2023/02/24 10:46:21;;;;;;;6.70;1.53;;;8.30;99.90;;;;;;4897439;29;20211;-74
2023/02/24 10:48:59;;;;;;;5.43;1.40;;;8.30;99.90;;;;;;4897175;29;20726;-74
2023/02/24 10:51:31;;;;;;;3.10;1.03;;;8.20;99.90;;;;;;4897327;29;20267;-74
2023/02/24 10:54:21;;;;;;;5.67;1.20;;;7.80;99.90;;;;;;4897486;29;20214;-75
2023/02/24 10:57:06;;;;;;;7.17;1.30;;;7.90;99.90;;;;;;4897319;29;20229;-74
2023/02/24 10:59:57;;;;;;;7.30;1.20;;;8.00;99.90;;;;;;4897440;29;20245;-74
2023/02/24 11:02:55;;;;;;;2.20;0.90;;;8.00;99.90;;;;;;4897513;29;20225;-74
2023/02/24 11:05:37;;;;;;;4.70;0.90;;;7.90;99.90;;;;;;4900713;29;20215;-74
2023/02/24 11:08:24;;;;;;;4.77;1.07;;;8.10;99.90;;;;;;4900883;29;20234;-74
2023/02/24 11:11:05;;;;;;;4.70;0.90;;;8.20;99.90;;;;;;4900888;29;20658;-74
2023/02/24 11:19:15;;;;;;;3.97;1.30;;;8.80;99.90;;;;;;4899788;29;20238;-74
2023/02/24 11:21:42;;;;;;;4.37;1.00;;;8.70;99.90;;;;;;4900618;29;20232;-74
2023/02/24 11:24:18;;;;;;;3.23;1.20;;;8.80;99.90;;;;;;4900666;29;20215;-74
2023/02/24 11:26:47;;;;;;;6.37;1.70;;;8.40;99.90;;;;;;4900866;29;20217;-75
2023/02/24 11:29:40;;;;;;;2.47;0.80;;;8.40;99.90;;;;;;4900364;29;20214;-74
2023/02/24 11:32:36;;;;;;;3.87;0.90;;;8.50;99.90;;;;;;4900251;29;20671;-74
2023/02/24 11:35:12;;;;;;;4.07;1.10;;;8.50;99.90;;;;;;4899957;29;20551;-74
2023/02/24 11:37:42;;;;;;;5.80;1.00;;;8.60;99.90;;;;;;4899755;29;20230;-74
2023/02/24 11:40:17;;;;;;;4.57;1.47;;;8.80;99.90;;;;;;4900490;29;20246;-74
2023/02/24 11:42:50;;;;;;;2.07;1.03;;;9.00;99.90;;;;;;4900254;29;20301;-74
2023/02/24 11:45:28;;;;;;;5.33;1.23;;;9.20;99.90;;;;;;4900128;29;20296;-74
2023/02/24 11:48:00;;;;;;;3.13;1.00;;;9.20;99.90;;;;;;4899828;29;20241;-74
2023/02/24 11:50:38;;;;;;;8.47;1.10;;;9.40;99.90;;;;;;4899887;29;20214;-74
2023/02/24 11:53:12;;;;;;;10.23;1.10;;;9.40;99.90;;;;;;4900405;29;20221;-74
2023/02/24 11:55:43;;;;;;;5.03;1.10;;;9.50;99.90;;;;;;4900219;29;20215;-74
2023/02/24 11:58:17;;;;;;;5.57;0.90;;;9.60;99.90;;;;;;4899983;29;20601;-74
2023/02/24 12:00:53;;;;;;;6.70;1.10;;;9.50;99.90;;;;;;4899767;29;20237;-74
2023/02/24 12:03:29;;;;;;;3.93;1.20;;;9.70;99.90;;;;;;4899951;29;20210;-75
2023/02/24 12:06:02;;;;;;;7.00;1.50;;;9.40;99.90;;;;;;4899815;29;20206;-74
2023/02/24 12:08:32;;;;;;;2.60;1.07;;;9.20;99.90;;;;;;4899551;29;20236;-74
2023/02/24 12:11:05;;;;;;;5.27;1.20;;;9.10;99.90;;;;;;4899748;29;20214;-74
2023/02/24 12:13:38;;;;;;;6.73;1.10;;;9.20;99.90;;;;;;4899890;29;20216;-74
2023/02/24 12:16:14;;;;;;;7.40;1.30;;;9.10;99.90;;;;;;4898725;29;20213;-74
2023/02/24 12:18:45;;;;;;;6.40;0.90;;;9.30;99.90;;;;;;4899369;29;20585;-74
2023/02/24 12:21:18;;;;;;;5.77;1.10;;;9.30;99.90;;;;;;4899253;29;20218;-74
2023/02/24 12:23:48;;;;;;;5.07;1.10;;;9.20;99.90;;;;;;4899613;29;20590;-74
2023/02/24 12:26:22;;;;;;;1.80;0.80;;;9.40;99.90;;;;;;4899716;29;20207;-74
2023/02/24 12:29:03;;;;;;;4.83;1.10;;;9.20;99.90;;;;;;4899524;29;20626;-74
2023/02/24 12:31:40;;;;;;;6.63;1.27;;;9.30;99.90;;;;;;4899317;29;20560;-74
2023/02/24 12:34:14;;;;;;;5.73;1.27;;;9.40;99.90;;;;;;4899155;29;20229;-74
2023/02/24 12:37:07;;;;;;;5.47;1.10;;;9.30;99.90;;;;;;4898968;29;20242;-74
2023/02/24 12:39:40;;;;;;;3.30;0.90;;;9.40;99.90;;;;;;4898551;29;20230;-74
2023/02/24 12:42:17;;;;;;;4.27;0.90;;;9.30;99.90;;;;;;4899419;29;20297;-74
2023/02/24 12:44:52;;;;;;;6.33;1.10;;;9.10;99.90;;;;;;4899188;29;20217;-74
2023/02/24 12:47:30;;;;;;;3.17;1.10;;;9.20;99.90;;;;;;4899017;29;20226;-75
2023/02/24 12:50:15;;;;;;;4.33;1.30;;;9.20;99.90;;;;;;4899038;29;20304;-74
2023/02/24 12:52:53;;;;;;;5.27;1.30;;;9.20;99.90;;;;;;4898608;29;20214;-74
2023/02/24 12:55:25;;;;;;;5.80;1.20;;;9.30;99.90;;;;;;4899063;29;20210;-74
2023/02/24 12:57:59;;;;;;;4.60;1.00;;;9.30;99.90;;;;;;4898854;29;20329;-75
2023/02/24 13:00:35;;;;;;;4.40;1.20;;;9.40;99.90;;;;;;4898938;29;20241;-74
2023/02/24 13:03:15;;;;;;;7.77;1.27;;;9.40;99.90;;;;;;4898555;29;20210;-74
2023/02/24 13:05:48;;;;;;;5.53;1.73;;;9.60;99.90;;;;;;4898865;29;20220;-74
2023/02/24 13:08:22;;;;;;;5.87;1.10;;;9.60;99.90;;;;;;4898747;29;20647;-74
2023/02/24 13:11:05;;;;;;;4.57;1.30;;;9.60;99.90;;;;;;4898798;29;20214;-74
2023/02/24 13:13:39;;;;;;;4.90;1.03;;;9.80;99.90;;;;;;4898272;29;20214;-74
2023/02/24 13:16:06;;;;;;;5.30;1.47;;;9.90;99.90;;;;;;4898898;29;20226;-74
2023/02/24 13:18:38;;;;;;;6.03;1.60;;;9.80;99.90;;;;;;4898604;29;20230;-74
2023/02/24 13:21:08;;;;;;;7.47;1.10;;;9.90;99.90;;;;;;4898287;29;20297;-74
2023/02/24 13:23:37;;;;;;;7.90;1.60;;;10.10;99.90;;;;;;4898284;29;20214;-73
2023/02/24 13:26:04;;;;;;;4.70;1.50;;;9.90;99.90;;;;;;4898400;29;20211;-73
2023/02/24 13:28:34;;;;;;;4.90;1.43;;;9.70;99.90;;;;;;4898289;29;20257;-74
2023/02/24 13:31:04;;;;;;;4.57;1.63;;;9.80;99.90;;;;;;4898498;29;20214;-74
2023/02/24 13:33:35;;;;;;;2.97;1.10;;;9.60;99.90;;;;;;4898380;29;20275;-74
2023/02/24 13:36:12;;;;;;;4.03;1.70;;;9.70;99.90;;;;;;4897967;29;20685;-74
2023/02/24 13:38:42;;;;;;;6.17;1.47;;;9.70;99.90;;;;;;4897792;29;20316;-74
2023/02/24 13:41:36;;;;;;;7.17;1.60;;;9.70;99.90;;;;;;4897487;29;20238;-74
2023/02/24 13:44:25;;;;;;;2.30;1.47;;;9.70;99.90;;;;;;4897873;29;20578;-75
2023/02/24 13:47:17;;;;;;;4.70;1.70;;;9.70;99.90;;;;;;4897567;29;20230;-74
2023/02/24 13:49:53;;;;;;;2.63;1.57;;;9.70;99.90;;;;;;4898006;29;20215;-75
2023/02/24 13:52:34;;;;;;;8.23;2.27;;;9.70;99.90;;;;;;4897884;29;20474;-74
2023/02/24 13:55:18;;;;;;;8.43;1.70;;;9.70;99.90;;;;;;4897747;29;20669;-74
2023/02/24 13:58:00;;;;;;;5.20;2.33;;;9.60;99.90;;;;;;4897172;29;20713;-76
2023/02/24 14:00:44;;;;;;;8.20;1.90;;;9.60;99.90;;;;;;4896826;29;20593;-75
2023/02/24 14:03:17;;;;;;;3.87;1.57;;;9.50;99.90;;;;;;4897620;29;20637;-75
2023/02/24 14:05:45;;;;;;;4.77;1.90;;;9.40;99.90;;;;;;4897622;29;20457;-76
2023/02/24 14:08:20;;;;;;;6.20;2.10;;;9.30;99.90;;;;;;4897878;29;20234;-75
2023/02/24 14:10:53;;;;;;;3.97;2.10;;;9.20;99.90;;;;;;4907262;29;20268;-75
2023/02/24 14:13:26;;;;;;;8.03;2.10;;;9.10;99.90;;;;;;4916148;29;20213;-75
2023/02/24 14:15:55;;;;;;;3.77;1.73;;;9.20;99.90;;;;;;4916052;29;20216;-75
2023/02/24 14:18:24;;;;;;;9.03;2.70;;;9.20;99.90;;;;;;4916134;29;20244;-74
2023/02/24 14:20:53;;;;;;;5.90;3.57;;;9.10;99.90;;;;;;4916494;29;20246;-75
2023/02/24 14:23:23;;;;;;;4.60;2.70;;;9.10;99.90;;;;;;4916235;29;20209;-75
2023/02/24 14:25:55;;;;;;;8.00;2.83;;;9.10;99.90;;;;;;4916156;29;20252;-74
2023/02/24 14:28:25;;;;;;;4.70;2.53;;;9.20;99.90;;;;;;4916081;29;20225;-74
2023/02/24 14:30:54;;;;;;;6.47;2.80;;;9.30;99.90;;;;;;4915978;29;20239;-74
2023/02/24 14:33:28;;;;;;;4.33;2.37;;;9.10;99.90;;;;;;4916336;29;20217;-74
2023/02/24 14:35:57;;;;;;;6.87;2.27;;;9.20;99.90;;;;;;4915922;29;20209;-74
2023/02/24 14:38:33;;;;;;;5.97;2.43;;;9.10;99.90;;;;;;4917155;29;20225;-74
2023/02/24 14:41:01;;;;;;;5.47;2.60;;;9.00;99.90;;;;;;4916360;29;20241;-75
2023/02/24 14:43:28;;;;;;;6.43;2.50;;;8.90;99.90;;;;;;4918855;29;20209;-75
2023/02/24 14:45:56;;;;;;;5.10;2.37;;;8.80;99.90;;;;;;4917970;29;20214;-74
2023/02/24 14:48:28;;;;;;;5.00;2.30;;;8.80;99.90;;;;;;4917341;29;20234;-74
2023/02/24 14:51:01;;;;;;;6.73;2.27;;;8.80;99.90;;;;;;4917404;29;20274;-74
2023/02/24 14:53:29;;;;;;;4.27;2.80;;;8.80;99.90;;;;;;4916866;29;20210;-75
2023/02/24 14:55:58;;;;;;;6.57;2.80;;;8.80;99.90;;;;;;4917209;29;20560;-74
2023/02/24 14:58:30;;;;;;;7.63;2.83;;;8.80;99.90;;;;;;4917759;29;20230;-74
2023/02/24 15:01:01;;;;;;;6.73;2.47;;;8.70;99.90;;;;;;4917607;29;20243;-74
2023/02/24 15:03:32;;;;;;;7.07;2.63;;;8.50;99.90;;;;;;4918514;29;20213;-74
2023/02/24 15:06:06;;;;;;;5.90;2.53;;;8.30;99.90;;;;;;4917909;29;20217;-74
2023/02/24 15:08:36;;;;;;;6.03;2.80;;;8.30;99.90;;;;;;4917349;29;20236;-75
2023/02/24 15:11:18;;;;;;;6.47;2.70;;;8.30;99.90;;;;;;4918257;29;20206;-74
2023/02/24 15:13:49;;;;;;;3.77;2.60;;;8.20;99.90;;;;;;4918591;29;20209;-75
2023/02/24 15:16:21;;;;;;;6.00;2.70;;;8.20;99.90;;;;;;4917556;29;20673;-73
2023/02/24 15:18:51;;;;;;;6.10;2.37;;;8.10;99.90;;;;;;4917526;29;20252;-74
2023/02/24 15:21:23;;;;;;;4.53;2.50;;;8.10;99.90;;;;;;4917183;29;20237;-74
2023/02/24 15:23:58;;;;;;;5.87;2.60;;;8.00;99.90;;;;;;4917579;29;20214;-75
2023/02/24 15:26:28;;;;;;;4.83;2.80;;;8.00;99.90;;;;;;4917772;29;20513;-74
2023/02/24 15:29:00;;;;;;;3.60;2.20;;;8.00;99.90;;;;;;4917454;29;20214;-74
2023/02/24 15:31:28;;;;;;;7.33;2.60;;;8.10;99.90;;;;;;4917059;29;20217;-74
2023/02/24 15:33:58;;;;;;;4.10;2.70;;;8.10;99.90;;;;;;4917253;29;20300;-74
2023/02/24 15:36:28;;;;;;;4.03;2.93;;;8.20;99.90;;;;;;4917618;29;20210;-76
2023/02/24 15:38:59;;;;;;;6.17;2.80;;;8.10;99.90;;;;;;4916795;29;20217;-74
2023/02/24 15:41:37;;;;;;;7.30;2.73;;;8.10;99.90;;;;;;4898352;29;20242;-75
2023/02/24 15:44:03;;;;;;;6.63;3.10;;;8.10;99.90;;;;;;4899186;29;20666;-74
2023/02/24 15:46:32;;;;;;;6.80;3.10;;;8.10;99.90;;;;;;4898211;29;20543;-74
2023/02/24 15:49:01;;;;;;;5.60;3.17;;;8.10;99.90;;;;;;4902518;29;20218;-74
2023/02/24 15:51:35;;;;;;;6.00;3.33;;;8.10;99.90;;;;;;4916962;29;20630;-74
2023/02/24 15:54:04;;;;;;;7.40;3.20;;;8.20;99.90;;;;;;4916860;29;20209;-75
2023/02/24 15:56:33;;;;;;;5.57;3.20;;;8.30;99.90;;;;;;4917529;29;20213;-74
2023/02/24 15:59:01;;;;;;;6.87;3.03;;;8.30;99.90;;;;;;4917143;29;20213;-77
2023/02/24 16:01:28;;;;;;;7.97;4.27;;;8.30;99.90;;;;;;4916524;29;20248;-75
2023/02/24 16:03:55;;;;;;;6.97;3.60;;;8.30;99.90;;;;;;4917009;29;20205;-74
2023/02/24 16:06:23;;;;;;;11.63;3.93;;;8.30;99.90;;;;;;4917033;29;20209;-78
2023/02/24 16:08:52;;;;;;;8.87;4.13;;;8.40;99.90;;;;;;4916400;29;20225;-75
2023/02/24 16:11:24;;;;;;;8.77;3.83;;;8.40;99.90;;;;;;4916944;29;20309;-75
2023/02/24 16:13:55;;;;;;;8.13;4.20;;;8.50;99.90;;;;;;4917168;29;20209;-75
2023/02/24 16:16:23;;;;;;;12.67;5.53;;;8.50;99.90;;;;;;4916362;29;20210;-76
2023/02/24 16:18:50;;;;;;;9.60;4.50;;;8.50;99.90;;;;;;4916637;29;20221;-74
2023/02/24 16:21:17;;;;;;;12.63;4.50;;;8.60;99.90;;;;;;4916273;29;20245;-76
2023/02/24 16:23:44;;;;;;;9.63;4.67;;;8.70;99.90;;;;;;4913324;29;20210;-75
2023/02/24 16:26:17;;;;;;;9.90;4.20;;;8.70;99.90;;;;;;4916107;29;20688;-76
2023/02/24 16:28:46;;;;;;;9.97;5.07;;;8.60;99.90;;;;;;4916068;29;20241;-73
2023/02/24 16:31:12;;;;;;;7.40;4.20;;;8.60;99.90;;;;;;4915692;29;20213;-73
2023/02/24 16:33:39;;;;;;;7.13;4.43;;;8.60;99.90;;;;;;4916440;29;20206;-74
2023/02/24 16:36:10;;;;;;;10.57;5.17;;;8.70;99.90;;;;;;4915627;29;20665;-75
2023/02/24 16:38:37;;;;;;;14.80;6.27;;;8.70;99.90;;;;;;4915708;29;20234;-74
2023/02/24 16:41:04;;;;;;;11.57;4.87;;;8.60;99.90;;;;;;4915882;29;20241;-73
2023/02/24 16:43:33;;;;;;;10.93;5.03;;;8.70;99.90;;;;;;4916333;29;20213;-74
2023/02/24 16:46:03;;;;;;;10.53;5.40;;;8.60;99.90;;;;;;4915638;29;20213;-74
2023/02/24 16:48:33;;;;;;;10.83;5.80;;;8.70;99.90;;;;;;4916060;29;20336;-74
2023/02/24 16:51:00;;;;;;;9.23;4.70;;;8.60;99.90;;;;;;4914578;29;20209;-74
2023/02/24 16:53:27;;;;;;;15.40;7.13;;;8.60;99.90;;;;;;4913591;29;20220;-74
2023/02/24 16:55:54;;;;;;;12.93;4.47;;;8.60;99.90;;;;;;4915690;29;20214;-70
2023/02/24 16:58:22;;;;;;;14.37;4.90;;;8.50;99.90;;;;;;4915891;29;20251;-71
2023/02/24 17:00:52;;;;;;;16.20;6.13;;;8.40;99.90;;;;;;4914746;29;20237;-73
2023/02/24 17:03:23;;;;;;;11.40;5.27;;;8.40;99.90;;;;;;4916215;29;20300;-75
2023/02/24 17:05:50;;;;;;;9.87;5.00;;;8.40;99.90;;;;;;4916296;29;20313;-75
2023/02/24 17:08:17;;;;;;;8.40;3.27;;;8.40;99.90;;;;;;4915753;29;20238;-74
2023/02/24 17:10:45;;;;;;;14.20;4.80;;;8.40;99.90;;;;;;4915748;29;20214;-76
2023/02/24 17:13:14;;;;;;;14.90;4.60;;;8.30;99.90;;;;;;4915860;29;20237;-77
2023/02/24 17:15:41;;;;;;;12.23;4.70;;;8.20;99.90;;;;;;4915715;29;20245;-73
2023/02/24 17:18:09;;;;;;;10.57;4.20;;;8.10;99.90;;;;;;4915927;29;20237;-75
2023/02/24 17:20:38;;;;;;;10.67;4.47;;;8.00;99.90;;;;;;4915472;29;20209;-75
2023/02/24 17:23:05;;;;;;;12.30;4.30;;;7.90;99.90;;;;;;4914948;29;20569;-76
2023/02/24 17:25:33;;;;;;;8.80;4.00;;;7.80;99.90;;;;;;4915601;29;20205;-74
2023/02/24 17:28:00;;;;;;;10.77;3.67;;;7.80;99.90;;;;;;4915424;29;20226;-72
2023/02/24 17:30:29;;;;;;;10.23;3.47;;;7.70;99.90;;;;;;4914347;29;20209;-73
2023/02/24 17:32:56;;;;;;;8.33;3.80;;;7.70;99.90;;;;;;4915394;29;20209;-74
2023/02/24 17:35:24;;;;;;;12.20;3.67;;;7.50;99.90;;;;;;4915484;29;20225;-73
2023/02/24 17:37:51;;;;;;;10.97;3.50;;;7.40;99.90;;;;;;4915383;29;20742;-78
2023/02/24 17:40:19;;;;;;;9.23;3.80;;;7.30;99.90;;;;;;4915242;29;20731;-75
2023/02/24 17:42:46;;;;;;;13.13;3.00;;;7.10;99.90;;;;;;4915892;29;20239;-74
2023/02/24 17:45:14;;;;;;;9.87;4.17;;;7.10;99.90;;;;;;4915589;29;20217;-72
2023/02/24 17:47:42;;;;;;;13.00;3.27;;;7.10;99.90;;;;;;4915037;29;20730;-72
2023/02/24 17:50:12;;;;;;;10.37;3.13;;;7.20;99.90;;;;;;4914624;29;20214;-73
2023/02/24 17:52:40;;;;;;;11.37;2.60;;;7.30;99.90;;;;;;4914616;29;20213;-74
2023/02/24 17:55:08;;;;;;;10.70;2.77;;;7.30;99.90;;;;;;4915406;29;20206;-73
2023/02/24 17:57:35;;;;;;;7.60;2.80;;;7.40;99.90;;;;;;4918802;29;20315;-75
2023/02/24 18:00:04;;;;;;;13.23;3.27;;;7.40;99.90;;;;;;4915963;29;20649;-72
2023/02/24 18:02:31;;;;;;;10.83;2.20;;;7.50;99.90;;;;;;4916931;29;20241;-75
2023/02/24 18:04:58;;;;;;;6.47;3.10;;;7.60;99.90;;;;;;4915590;29;20701;-74
2023/02/24 18:07:25;;;;;;;11.63;4.47;;;7.50;99.90;;;;;;4914934;29;20724;-74
2023/02/24 18:09:53;;;;;;;15.83;3.30;;;7.50;99.90;;;;;;4915435;29;20213;-73
2023/02/24 18:12:20;;;;;;;12.27;2.87;;;7.50;99.90;;;;;;4912289;29;20221;-74
2023/02/24 18:14:47;;;;;;;6.67;2.37;;;7.70;99.90;;;;;;4914989;29;20206;-73
2023/02/24 18:17:14;;;;;;;7.13;2.47;;;7.70;99.90;;;;;;4914929;29;20225;-74
2023/02/24 18:19:41;;;;;;;9.73;2.70;;;7.70;99.90;;;;;;4914585;29;20225;-73
2023/02/24 18:22:09;;;;;;;25.83;6.30;;;7.70;99.90;;;;;;4914477;29;20589;-77
2023/02/24 18:24:38;;;;;;;14.40;3.60;;;7.60;99.90;;;;;;4914557;29;20589;-78
2023/02/24 18:27:06;;;;;;;12.90;3.50;;;7.50;99.90;;;;;;4915757;29;20312;-77
2023/02/24 18:29:35;;;;;;;6.73;2.33;;;7.40;99.90;;;;;;4914903;29;20538;-74
2023/02/24 18:32:02;;;;;;;18.90;5.20;;;7.40;99.90;;;;;;4915234;29;20213;-84
2023/02/24 18:34:30;;;;;;;9.00;2.40;;;7.40;99.90;;;;;;4916257;29;20214;-81
2023/02/24 18:36:57;;;;;;;7.70;1.73;;;7.30;99.90;;;;;;4916208;29;20558;-82
2023/02/24 18:39:24;;;;;;;8.53;1.37;;;7.30;99.90;;;;;;4916838;29;20550;-80
2023/02/24 18:41:50;;;;;;;4.80;1.73;;;7.30;99.90;;;;;;4916588;29;20296;-80
2023/02/24 18:44:19;;;;;;;38.33;10.67;;;7.30;99.90;;;;;;4916547;29;20212;-81
2023/02/24 18:46:46;;;;;;;9.73;2.20;;;7.10;99.90;;;;;;4916308;29;20300;-81
2023/02/24 18:49:13;;;;;;;12.20;2.40;;;7.10;99.90;;;;;;4916565;29;20316;-81
2023/02/24 18:51:39;;;;;;;12.33;1.97;;;7.30;99.90;;;;;;4916727;29;20609;-81
2023/02/24 18:54:06;;;;;;;8.10;1.43;;;7.10;99.90;;;;;;4916943;29;20205;-82
2023/02/24 18:56:34;;;;;;;4.63;1.47;;;7.20;99.90;;;;;;4915076;29;20210;-82
2023/02/24 18:59:02;;;;;;;4.17;2.17;;;7.20;99.90;;;;;;4916879;29;20214;-81
2023/02/24 19:01:32;;;;;;;5.60;1.20;;;7.00;99.90;;;;;;4916593;29;20238;-81
2023/02/24 19:03:59;;;;;;;4.13;0.80;;;6.90;99.90;;;;;;4916706;29;20205;-81
2023/02/24 19:06:28;;;;;;;8.10;0.83;;;6.90;99.90;;;;;;4916445;29;20216;-82
2023/02/24 19:08:57;;;;;;;2.60;0.97;;;6.90;99.90;;;;;;4916650;29;20592;-81
2023/02/24 19:11:25;;;;;;;9.03;1.20;;;6.70;99.90;;;;;;4916552;29;20225;-82
2023/02/24 19:13:52;;;;;;;4.37;1.00;;;6.80;99.90;;;;;;4916290;29;20297;-82
2023/02/24 19:16:19;;;;;;;5.37;0.93;;;6.80;99.90;;;;;;4916254;29;20237;-82
2023/02/24 19:18:50;;;;;;;4.53;1.13;;;6.70;99.90;;;;;;4916315;29;20226;-81
2023/02/24 19:21:17;;;;;;;2.80;0.93;;;6.60;99.90;;;;;;4916005;29;20693;-81
2023/02/24 19:23:44;;;;;;;5.23;1.50;;;6.50;99.90;;;;;;4917168;29;20209;-82
2023/02/24 19:26:16;;;;;;;3.53;1.03;;;6.50;99.90;;;;;;4919677;29;20218;-82
2023/02/24 19:28:43;;;;;;;7.90;1.40;;;6.50;99.90;;;;;;4919577;29;20233;-82
2023/02/24 19:31:13;;;;;;;7.90;1.13;;;6.50;99.90;;;;;;4919559;29;20300;-82
2023/02/24 19:33:40;;;;;;;8.77;2.03;;;6.40;99.90;;;;;;4919488;29;20213;-82
2023/02/24 19:36:09;;;;;;;3.23;1.13;;;6.30;99.90;;;;;;4919493;29;20209;-82
2023/02/24 19:38:37;;;;;;;5.80;1.40;;;6.40;99.90;;;;;;4919567;29;20656;-82
2023/02/24 19:41:04;;;;;;;7.93;1.20;;;6.40;99.90;;;;;;4919252;29;20213;-82
2023/02/24 19:43:30;;;;;;;8.30;1.30;;;6.40;99.90;;;;;;4912762;29;20209;-81
2023/02/24 19:45:58;;;;;;;3.07;1.10;;;6.40;99.90;;;;;;4907568;29;20218;-81
2023/02/24 19:48:24;;;;;;;6.83;1.00;;;6.40;99.90;;;;;;4910556;29;20317;-82
2023/02/24 19:50:51;;;;;;;2.47;0.90;;;6.40;99.90;;;;;;4904027;29;20218;-82
2023/02/24 19:53:19;;;;;;;5.50;0.80;;;6.30;99.90;;;;;;4911205;29;20221;-82
2023/02/24 19:55:50;;;;;;;8.20;1.80;;;6.30;99.90;;;;;;4908250;29;20214;-82
2023/02/24 19:58:17;;;;;;;4.90;1.60;;;6.30;99.90;;;;;;4917608;29;20230;-82
2023/02/24 20:00:43;;;;;;;8.17;1.67;;;6.30;99.90;;;;;;4913087;29;20216;-81
2023/02/24 20:03:10;;;;;;;5.00;1.10;;;6.20;99.90;;;;;;4916193;29;20237;-81
2023/02/24 20:05:37;;;;;;;5.50;1.50;;;6.20;99.90;;;;;;4912256;29;20220;-82
2023/02/24 20:08:04;;;;;;;14.17;1.67;;;6.20;99.90;;;;;;4916798;29;20329;-81
2023/02/24 20:10:33;;;;;;;3.53;0.93;;;6.30;99.90;;;;;;4906492;29;20645;-81
2023/02/24 20:13:00;;;;;;;10.77;1.90;;;6.20;99.90;;;;;;4915655;29;20213;-82
2023/02/24 20:15:27;;;;;;;10.67;1.40;;;6.30;99.90;;;;;;4904884;29;20206;-82
2023/02/24 20:17:53;;;;;;;3.77;1.13;;;6.20;99.90;;;;;;4914980;29;20321;-80
2023/02/24 20:20:21;;;;;;;6.37;1.40;;;6.00;99.90;;;;;;4910076;29;20441;-81
2023/02/24 20:22:47;;;;;;;6.03;1.10;;;6.00;99.90;;;;;;4912931;29;20244;-82
2023/02/24 20:25:14;;;;;;;3.70;1.10;;;6.20;99.90;;;;;;4915602;29;20217;-82
2023/02/24 20:27:43;;;;;;;6.10;1.00;;;6.20;99.90;;;;;;4914243;29;21279;-82
2023/02/24 20:30:11;;;;;;;4.77;1.10;;;6.30;99.90;;;;;;4917792;29;20245;-82
2023/02/24 20:32:38;;;;;;;5.97;0.80;;;6.20;99.90;;;;;;4913083;29;20208;-82
2023/02/24 20:35:06;;;;;;;4.63;1.07;;;6.10;99.90;;;;;;4907001;29;20221;-82
2023/02/24 20:37:33;;;;;;;6.47;1.00;;;6.20;99.90;;;;;;4913956;29;20257;-82
2023/02/24 20:39:59;;;;;;;4.83;1.13;;;6.30;99.90;;;;;;4917769;29;20245;-82
2023/02/24 20:42:26;;;;;;;7.00;1.30;;;6.20;99.90;;;;;;4911233;29;20318;-82
2023/02/24 20:44:54;;;;;;;5.33;1.40;;;6.10;99.90;;;;;;4901848;29;20232;-82
2023/02/24 20:47:21;;;;;;;4.20;1.03;;;6.00;99.90;;;;;;4909647;29;20224;-81
2023/02/24 20:49:48;;;;;;;4.23;1.10;;;5.90;99.90;;;;;;4917239;29;20201;-82
2023/02/24 20:52:15;;;;;;;5.83;1.70;;;5.80;99.90;;;;;;4909755;29;20209;-81
2023/02/24 20:54:44;;;;;;;5.73;1.30;;;5.90;99.90;;;;;;4909303;29;20281;-81
2023/02/24 20:57:11;;;;;;;4.67;1.20;;;5.90;99.90;;;;;;4908168;29;20352;-81
2023/02/24 20:59:42;;;;;;;4.73;2.00;;;5.80;99.90;;;;;;4909211;29;20304;-81
2023/02/24 21:02:11;;;;;;;6.50;1.87;;;5.70;99.90;;;;;;4908336;29;20705;-81
2023/02/24 21:04:38;;;;;;;7.50;1.20;;;5.70;99.90;;;;;;4914542;29;20234;-81
2023/02/24 21:07:05;;;;;;;5.03;1.50;;;5.70;99.90;;;;;;4915341;29;20241;-82
2023/02/24 21:09:35;;;;;;;4.77;1.60;;;5.60;99.90;;;;;;4912794;29;20630;-82
2023/02/24 21:12:04;;;;;;;4.00;1.83;;;5.60;99.90;;;;;;4913356;29;20641;-82
2023/02/24 21:14:31;;;;;;;4.30;1.50;;;5.60;99.90;;;;;;4911122;29;20221;-82
2023/02/24 21:16:57;;;;;;;7.67;1.23;;;5.50;99.90;;;;;;4912291;29;20702;-82
2023/02/24 21:19:26;;;;;;;5.07;1.27;;;5.50;99.90;;;;;;4911072;29;20648;-81
2023/02/24 21:21:52;;;;;;;7.70;1.40;;;5.60;99.90;;;;;;4910718;29;20213;-81
2023/02/24 21:24:19;;;;;;;9.53;1.50;;;5.80;99.90;;;;;;4910162;29;20760;-82
2023/02/24 21:26:47;;;;;;;6.67;1.27;;;5.80;99.90;;;;;;4916278;29;20526;-82
2023/02/24 21:29:14;;;;;;;6.00;1.30;;;5.80;99.90;;;;;;4908364;29;20211;-81
2023/02/24 21:31:41;;;;;;;9.50;1.10;;;5.70;99.90;;;;;;4914618;29;20244;-81
2023/02/24 21:34:10;;;;;;;6.87;1.33;;;5.90;99.90;;;;;;4904939;29;20214;-82
2023/02/24 21:36:39;;;;;;;6.03;0.83;;;6.00;99.90;;;;;;4914766;29;20209;-81
2023/02/24 21:39:06;;;;;;;5.10;1.47;;;6.00;99.90;;;;;;4909214;29;20221;-82
2023/02/24 21:41:34;;;;;;;2.53;1.10;;;6.10;99.90;;;;;;4911270;29;20218;-82
2023/02/24 21:44:01;;;;;;;10.67;1.73;;;6.00;99.90;;;;;;4906235;29;20336;-82